createdAt,value
2018-05-03T00:00:25.213Z,2.37
2018-05-03T00:02:52.712Z,1.67
2018-05-03T00:05:20.290Z,1.63
2018-05-03T00:07:47.771Z,1.93
2018-05-03T00:10:15.300Z,1.93
2018-05-03T00:12:42.782Z,3.33
2018-05-03T00:15:10.257Z,2.33
2018-05-03T00:17:37.786Z,2.80
2018-05-03T00:20:05.279Z,1.43
2018-05-03T00:22:32.758Z,2.63
2018-05-03T00:25:00.259Z,1.33
2018-05-03T00:27:27.738Z,1.40
2018-05-03T00:29:55.230Z,2.97
2018-05-03T00:32:22.781Z,1.50
2018-05-03T00:34:50.259Z,1.90
2018-05-03T00:37:17.739Z,1.60
2018-05-03T00:39:45.282Z,1.27
2018-05-03T00:42:13.534Z,1.37
2018-05-03T00:44:41.019Z,1.73
2018-05-03T00:47:08.559Z,1.30
2018-05-03T00:49:36.038Z,1.73
2018-05-03T00:52:03.519Z,0.90
2018-05-03T00:54:42.822Z,3.90
2018-05-03T00:57:10.310Z,1.97
2018-05-03T00:59:37.795Z,1.30
2018-05-03T01:02:05.334Z,1.30
2018-05-03T01:04:33.583Z,1.93
2018-05-03T01:07:01.080Z,2.03
2018-05-03T01:09:28.618Z,1.67
2018-05-03T01:11:56.867Z,1.40
2018-05-03T01:14:24.350Z,2.63
2018-05-03T01:16:51.905Z,2.57
2018-05-03T01:19:19.388Z,1.20
2018-05-03T01:21:47.645Z,1.40
2018-05-03T01:24:15.178Z,1.10
2018-05-03T01:26:42.663Z,2.30
2018-05-03T01:29:10.155Z,1.60
2018-05-03T01:31:37.670Z,2.70
2018-05-03T01:34:05.151Z,1.40
2018-05-03T01:36:32.630Z,1.93
2018-05-03T01:39:00.178Z,4.53
2018-05-03T01:41:28.436Z,2.63
2018-05-03T01:43:55.927Z,3.60
2018-05-03T01:46:23.451Z,2.80
2018-05-03T01:48:50.939Z,2.43
2018-05-03T01:51:19.183Z,2.53
2018-05-03T01:53:46.718Z,3.23
2018-05-03T01:56:14.207Z,4.40
2018-05-03T01:58:41.695Z,4.17
2018-05-03T02:01:09.251Z,3.37
2018-05-03T02:03:37.515Z,5.03
2018-05-03T02:06:05.009Z,4.97
2018-05-03T02:08:32.522Z,4.97
2018-05-03T02:11:00.015Z,4.70
2018-05-03T02:13:28.270Z,2.90
2018-05-03T02:15:55.802Z,3.67
2018-05-03T02:18:23.296Z,3.57
2018-05-03T02:20:51.558Z,4.63
2018-05-03T02:23:19.090Z,5.63
2018-05-03T02:25:46.588Z,4.30
2018-05-03T02:28:14.070Z,4.40
2018-05-03T02:30:42.398Z,5.43
2018-05-03T02:33:09.890Z,5.27
2018-05-03T02:35:37.384Z,5.83
2018-05-03T02:38:04.929Z,5.30
2018-05-03T02:40:32.418Z,7.40
2018-05-03T02:42:59.925Z,6.87
2018-05-03T02:45:27.446Z,4.40
2018-05-03T02:47:54.935Z,4.70
2018-05-03T02:50:22.423Z,3.93
2018-05-03T02:52:50.754Z,4.60
2018-05-03T02:55:19.020Z,3.63
2018-05-03T02:58:04.191Z,3.50
2018-05-03T03:00:49.211Z,6.47
2018-05-03T03:03:34.366Z,4.00
2018-05-03T03:06:13.594Z,5.57
2018-05-03T03:12:33.132Z,5.90
2018-05-03T03:15:18.155Z,6.23
2018-05-03T03:18:03.065Z,4.60
2018-05-03T03:20:57.025Z,6.80
2018-05-03T03:23:41.917Z,8.13
2018-05-03T03:26:41.806Z,6.77
2018-05-03T03:29:41.967Z,6.23
2018-05-03T03:32:21.091Z,4.83
2018-05-03T03:35:00.418Z,7.30
2018-05-03T03:37:39.695Z,6.47
2018-05-03T03:40:25.027Z,6.53
2018-05-03T03:45:51.570Z,8.50
2018-05-03T03:48:19.858Z,8.90
2018-05-03T03:50:47.334Z,6.83
2018-05-03T03:53:14.825Z,8.00
2018-05-03T03:55:42.364Z,6.77
2018-05-03T03:58:09.908Z,8.83
2018-05-03T04:00:37.360Z,7.63
2018-05-03T04:03:04.962Z,9.30
2018-05-03T04:05:32.458Z,6.43
2018-05-03T04:07:59.954Z,8.27
2018-05-03T04:10:27.485Z,11.37
2018-05-03T04:12:54.971Z,6.77
2018-05-03T04:15:22.460Z,8.83
2018-05-03T04:18:01.829Z,7.90
2018-05-03T04:20:45.675Z,7.47
2018-05-03T04:26:12.686Z,7.43
2018-05-03T04:28:40.208Z,7.13
2018-05-03T04:31:07.690Z,8.07
2018-05-03T04:33:35.176Z,7.50
2018-05-03T04:36:02.710Z,9.63
2018-05-03T04:38:30.190Z,9.67
2018-05-03T04:40:57.670Z,8.17
2018-05-03T04:43:25.230Z,6.30
2018-05-03T04:45:52.720Z,8.37
2018-05-03T04:48:20.206Z,8.77
2018-05-03T04:50:47.719Z,6.60
2018-05-03T04:53:15.216Z,7.43
2018-05-03T04:55:42.698Z,7.17
2018-05-03T04:58:10.223Z,7.47
2018-05-03T05:00:37.715Z,10.87
2018-05-03T05:03:05.203Z,8.73
2018-05-03T05:05:32.771Z,7.43
2018-05-03T05:08:00.291Z,9.83
2018-05-03T05:10:27.854Z,6.57
2018-05-03T05:12:55.318Z,7.97
2018-05-03T05:15:22.810Z,8.07
2018-05-03T05:17:50.352Z,7.10
2018-05-03T05:20:17.850Z,6.57
2018-05-03T05:22:46.798Z,8.13
2018-05-03T05:25:14.296Z,10.20
2018-05-03T05:27:41.855Z,8.10
2018-05-03T05:30:09.343Z,6.83
2018-05-03T05:32:36.830Z,8.03
2018-05-03T05:35:04.368Z,7.13
2018-05-03T05:37:31.870Z,7.00
2018-05-03T05:39:59.377Z,7.30
2018-05-03T05:42:26.918Z,5.47
2018-05-03T05:44:54.412Z,8.77
2018-05-03T05:47:21.907Z,6.67
2018-05-03T05:49:49.486Z,8.50
2018-05-03T05:52:16.980Z,6.27
2018-05-03T05:54:44.465Z,7.43
2018-05-03T05:57:12.015Z,6.97
2018-05-03T05:59:39.503Z,6.70
2018-05-03T06:02:06.987Z,6.63
2018-05-03T06:04:34.518Z,7.83
2018-05-03T06:07:02.012Z,7.27
2018-05-03T06:09:29.495Z,9.23
2018-05-03T06:11:57.803Z,7.87
2018-05-03T06:14:25.294Z,5.13
2018-05-03T06:16:52.787Z,6.30
2018-05-03T06:19:20.357Z,9.17
2018-05-03T06:21:47.862Z,7.87
2018-05-03T06:24:15.356Z,7.53
2018-05-03T06:26:42.883Z,9.37
2018-05-03T06:29:10.390Z,8.87
2018-05-03T06:31:37.889Z,6.83
2018-05-03T06:34:05.422Z,7.77
2018-05-03T06:36:32.902Z,6.37
2018-05-03T06:39:00.394Z,6.50
2018-05-03T06:41:27.966Z,6.23
2018-05-03T06:43:55.458Z,8.70
2018-05-03T06:46:22.956Z,6.43
2018-05-03T06:48:50.488Z,8.17
2018-05-03T06:51:17.978Z,7.40
2018-05-03T06:53:45.466Z,7.27
2018-05-03T06:56:12.994Z,6.97
2018-05-03T06:58:40.499Z,9.17
2018-05-03T07:01:07.990Z,6.20
2018-05-03T07:03:35.623Z,6.70
2018-05-03T07:06:03.119Z,6.40
2018-05-03T07:08:30.631Z,9.77
2018-05-03T07:10:58.162Z,7.60
2018-05-03T07:13:26.382Z,8.20
2018-05-03T07:15:54.642Z,8.40
2018-05-03T07:18:22.163Z,7.50
2018-05-03T07:20:49.649Z,12.47
2018-05-03T07:23:17.138Z,10.57
2018-05-03T07:25:44.692Z,7.77
2018-05-03T07:28:12.177Z,8.37
2018-05-03T07:30:39.680Z,10.13
2018-05-03T07:33:07.210Z,7.47
2018-05-03T07:35:34.696Z,11.23
2018-05-03T07:38:02.179Z,9.80
2018-05-03T07:40:29.742Z,9.30
2018-05-03T07:42:57.223Z,9.27
2018-05-03T07:45:24.720Z,9.30
2018-05-03T07:47:52.286Z,9.97
2018-05-03T07:50:20.544Z,8.37
2018-05-03T07:52:48.038Z,10.33
2018-05-03T07:55:15.566Z,10.10
2018-05-03T07:57:43.099Z,10.07
2018-05-03T08:00:10.597Z,9.97
2018-05-03T08:02:38.164Z,12.37
2018-05-03T08:05:05.666Z,9.73
2018-05-03T08:07:33.167Z,10.10
2018-05-03T08:10:00.728Z,7.57
2018-05-03T08:12:29.009Z,7.53
2018-05-03T08:14:56.490Z,7.83
2018-05-03T08:20:54.145Z,8.40
2018-05-03T08:23:22.439Z,7.47
2018-05-03T08:25:49.931Z,7.53
2018-05-03T08:28:17.423Z,7.67
2018-05-03T08:30:44.938Z,8.30
2018-05-03T08:33:12.431Z,8.57
2018-05-03T08:35:39.924Z,5.97
2018-05-03T08:38:07.495Z,7.27
2018-05-03T08:40:35.316Z,8.10
2018-05-03T08:43:02.802Z,6.43
2018-05-03T08:45:30.722Z,6.50
2018-05-03T08:47:58.329Z,5.60
2018-05-03T08:50:25.821Z,6.57
2018-05-03T08:52:53.376Z,6.00
2018-05-03T08:55:21.134Z,6.33
2018-05-03T08:57:49.506Z,7.07
2018-05-03T09:00:17.538Z,7.50
2018-05-03T09:02:45.023Z,8.23
2018-05-03T09:05:12.521Z,6.63
2018-05-03T09:07:40.085Z,8.70
2018-05-03T09:10:07.579Z,6.97
2018-05-03T09:12:35.082Z,8.67
2018-05-03T09:15:02.619Z,7.93
2018-05-03T09:17:30.106Z,10.63
2018-05-03T09:19:57.602Z,9.37
2018-05-03T09:22:25.161Z,10.07
2018-05-03T09:24:52.626Z,8.60
2018-05-03T09:27:20.111Z,8.90
2018-05-03T09:29:47.678Z,11.30
2018-05-03T09:32:15.167Z,12.27
2018-05-03T09:34:42.663Z,12.70
2018-05-03T09:37:10.191Z,11.20
2018-05-03T09:39:37.684Z,10.07
2018-05-03T09:42:05.175Z,11.90
2018-05-03T09:44:32.710Z,12.03
2018-05-03T09:47:00.979Z,13.00
2018-05-03T09:49:28.484Z,10.57
2018-05-03T09:51:56.002Z,12.10
2018-05-03T09:54:24.254Z,9.70
2018-05-03T09:56:51.747Z,10.80
2018-05-03T09:59:19.332Z,10.23
2018-05-03T10:01:46.770Z,8.70
2018-05-03T10:04:14.254Z,9.47
2018-05-03T10:06:41.812Z,11.07
2018-05-03T10:09:09.346Z,10.37
2018-05-03T10:11:36.813Z,12.03
2018-05-03T10:14:04.330Z,11.27
2018-05-03T10:16:31.854Z,10.13
2018-05-03T10:18:59.364Z,10.60
2018-05-03T10:21:26.899Z,10.53
2018-05-03T10:23:54.390Z,11.37
2018-05-03T10:26:24.597Z,15.83
2018-05-03T10:28:58.818Z,11.33
2018-05-03T10:31:30.343Z,12.37
2018-05-03T10:34:01.279Z,9.97
2018-05-03T10:36:32.101Z,11.33
2018-05-03T10:39:03.009Z,11.33
2018-05-03T10:41:30.619Z,12.77
2018-05-03T10:43:58.115Z,14.50
2018-05-03T10:46:25.724Z,14.23
2018-05-03T10:48:53.255Z,14.80
2018-05-03T10:51:20.750Z,17.87
2018-05-03T10:53:48.289Z,16.77
2018-05-03T10:56:16.551Z,14.57
2018-05-03T10:58:46.642Z,10.43
2018-05-03T11:01:16.961Z,9.73
2018-05-03T11:03:47.127Z,9.47
2018-05-03T11:06:18.225Z,9.37
2018-05-03T11:08:49.516Z,8.27
2018-05-03T11:11:21.792Z,9.53
2018-05-03T11:13:52.130Z,8.63
2018-05-03T11:16:22.137Z,7.63
2018-05-03T11:18:53.097Z,4.80
2018-05-03T11:21:23.037Z,6.17
2018-05-03T11:23:52.285Z,5.60
2018-05-03T11:26:22.945Z,7.27
2018-05-03T11:28:52.022Z,5.33
2018-05-03T11:31:20.805Z,5.40
2018-05-03T11:33:48.306Z,4.93
2018-05-03T11:36:15.843Z,5.77
2018-05-03T11:38:43.338Z,4.87
2018-05-03T11:41:10.823Z,5.50
2018-05-03T11:43:38.386Z,5.67
2018-05-03T11:46:05.948Z,5.00
2018-05-03T11:48:33.382Z,6.60
2018-05-03T11:51:00.906Z,3.37
2018-05-03T11:53:28.394Z,6.70
2018-05-03T11:55:55.885Z,5.90
2018-05-03T11:58:23.418Z,5.57
2018-05-03T12:00:50.915Z,3.47
2018-05-03T12:03:18.429Z,5.67
2018-05-03T12:05:45.994Z,5.90
2018-05-03T12:08:13.492Z,3.00
2018-05-03T12:10:40.990Z,2.73
2018-05-03T12:13:09.282Z,3.60
2018-05-03T12:15:36.783Z,2.73
2018-05-03T12:18:04.287Z,4.47
2018-05-03T12:20:32.583Z,2.23
2018-05-03T12:23:00.074Z,2.37
2018-05-03T12:25:27.568Z,2.93
2018-05-03T12:27:55.107Z,2.77
2018-05-03T12:30:22.602Z,2.97
2018-05-03T12:32:50.095Z,2.50
2018-05-03T12:35:17.602Z,2.07
2018-05-03T12:37:45.091Z,3.80
2018-05-03T12:40:12.574Z,2.40
2018-05-03T12:42:40.135Z,2.27
2018-05-03T12:45:07.628Z,2.13
2018-05-03T12:47:35.123Z,3.63
2018-05-03T12:50:05.767Z,2.67
2018-05-03T12:52:33.254Z,2.53
2018-05-03T12:55:00.760Z,2.67
2018-05-03T12:57:28.298Z,2.00
2018-05-03T12:59:55.799Z,3.93
2018-05-03T13:02:23.298Z,4.97
2018-05-03T13:04:50.839Z,3.13
2018-05-03T13:07:18.331Z,3.13
2018-05-03T13:09:45.834Z,3.20
2018-05-03T13:12:14.259Z,4.10
2018-05-03T13:14:41.757Z,2.93
2018-05-03T13:17:09.251Z,4.73
2018-05-03T13:19:36.774Z,16.87
2018-05-03T13:22:04.498Z,3.47
2018-05-03T13:24:31.981Z,3.30
2018-05-03T13:26:59.534Z,3.50
2018-05-03T13:29:27.019Z,5.07
2018-05-03T13:31:54.513Z,3.27
2018-05-03T13:34:22.869Z,2.33
2018-05-03T13:36:50.350Z,4.93
2018-05-03T13:39:18.614Z,4.47
2018-05-03T13:41:46.158Z,7.37
2018-05-03T13:44:13.645Z,4.67
2018-05-03T13:46:41.910Z,4.60
2018-05-03T13:49:09.479Z,3.33
2018-05-03T13:51:36.976Z,4.23
2018-05-03T13:54:04.479Z,4.20
2018-05-03T13:56:32.011Z,2.83
2018-05-03T13:58:59.499Z,3.77
2018-05-03T14:01:26.998Z,2.50
2018-05-03T14:03:54.527Z,2.77
2018-05-03T14:06:22.022Z,2.60
2018-05-03T14:08:50.283Z,3.73
2018-05-03T14:11:17.818Z,3.13
2018-05-03T14:13:45.474Z,4.10
2018-05-03T14:16:12.986Z,3.97
2018-05-03T14:18:40.504Z,4.40
2018-05-03T14:21:08.093Z,3.47
2018-05-03T14:23:35.518Z,4.77
2018-05-03T14:26:03.095Z,2.93
2018-05-03T14:28:30.583Z,4.40
2018-05-03T14:30:58.082Z,1.93
2018-05-03T14:33:25.608Z,4.20
2018-05-03T14:35:53.871Z,3.67
2018-05-03T14:38:21.372Z,3.90
2018-05-03T14:40:48.923Z,2.97
2018-05-03T14:43:16.420Z,4.60
2018-05-03T14:45:43.914Z,2.83
2018-05-03T14:48:11.479Z,6.17
2018-05-03T14:50:38.969Z,7.23
2018-05-03T14:53:06.470Z,4.13
2018-05-03T14:55:34.038Z,4.93
2018-05-03T14:58:01.531Z,3.50
2018-05-03T15:00:29.022Z,9.83
2018-05-03T15:02:56.559Z,4.80
2018-05-03T15:05:24.048Z,3.13
2018-05-03T15:07:51.535Z,5.20
2018-05-03T15:10:19.363Z,5.22
2018-05-03T15:12:46.903Z,4.30
2018-05-03T15:15:14.374Z,3.30
2018-05-03T15:17:41.950Z,4.70
2018-05-03T15:20:09.465Z,4.83
2018-05-03T15:22:37.766Z,5.15
2018-05-03T15:25:05.307Z,3.07
2018-05-03T15:27:33.580Z,5.23
2018-05-03T15:30:01.100Z,2.60
2018-05-03T15:32:28.651Z,4.53
2018-05-03T15:34:56.138Z,6.70
2018-05-03T15:37:23.632Z,5.40
2018-05-03T15:39:51.199Z,3.87
2018-05-03T15:42:18.690Z,3.40
2018-05-03T15:44:46.179Z,2.77
2018-05-03T15:47:13.716Z,4.93
2018-05-03T15:49:41.211Z,4.63
2018-05-03T15:52:08.707Z,5.37
2018-05-03T15:54:36.230Z,5.03
2018-05-03T15:57:03.730Z,4.00
2018-05-03T15:59:31.227Z,3.13
2018-05-03T16:01:58.799Z,3.37
2018-05-03T16:04:26.295Z,4.80
2018-05-03T16:06:53.791Z,2.83
2018-05-03T16:09:21.322Z,2.90
2018-05-03T16:11:48.818Z,3.55
2018-05-03T16:14:16.359Z,4.95
2018-05-03T16:16:43.846Z,2.35
2018-05-03T16:19:11.428Z,4.57
2018-05-03T16:21:38.942Z,4.05
2018-05-03T16:24:06.523Z,3.30
2018-05-03T16:26:34.019Z,2.87
2018-05-03T16:29:01.514Z,4.62
2018-05-03T16:31:29.067Z,2.80
2018-05-03T16:33:56.562Z,3.15
2018-05-03T16:36:24.055Z,3.53
2018-05-03T16:38:51.579Z,5.40
2018-05-03T16:41:19.158Z,4.50
2018-05-03T16:43:46.650Z,5.60
2018-05-03T16:46:14.163Z,4.60
2018-05-03T16:48:41.657Z,3.63
2018-05-03T16:51:09.154Z,5.83
2018-05-03T16:53:36.738Z,5.80
2018-05-03T16:56:04.263Z,5.20
2018-05-03T16:58:31.770Z,5.00
2018-05-03T17:00:59.315Z,4.70
2018-05-03T17:03:26.810Z,5.30
2018-05-03T17:05:54.291Z,6.17
2018-05-03T17:08:21.820Z,4.90
2018-05-03T17:10:49.325Z,3.63
2018-05-03T17:13:16.816Z,3.23
2018-05-03T17:15:48.244Z,6.10
2018-05-03T17:18:15.726Z,4.87
2018-05-03T17:20:43.216Z,5.37
2018-05-03T17:23:10.754Z,3.53
2018-05-03T17:25:38.250Z,3.80
2018-05-03T17:28:05.752Z,6.17
2018-05-03T17:30:33.318Z,3.37
2018-05-03T17:33:00.839Z,5.53
2018-05-03T17:35:28.334Z,8.23
2018-05-03T17:37:56.619Z,5.33
2018-05-03T17:40:24.123Z,4.97
2018-05-03T17:42:51.611Z,4.93
2018-05-03T17:45:19.919Z,5.40
2018-05-03T17:47:47.427Z,4.70
2018-05-03T17:50:14.919Z,6.47
2018-05-03T17:52:43.233Z,4.23
2018-05-03T17:55:10.727Z,7.83
2018-05-03T17:57:38.218Z,3.50
2018-05-03T18:00:06.499Z,5.40
2018-05-03T18:02:33.998Z,5.60
2018-05-03T18:05:01.492Z,3.13
2018-05-03T18:07:29.015Z,3.93
2018-05-03T18:09:56.510Z,4.03
2018-05-03T18:12:24.005Z,3.80
2018-05-03T18:14:51.574Z,4.70
2018-05-03T18:17:19.081Z,5.33
2018-05-03T18:19:46.575Z,5.00
2018-05-03T18:22:14.886Z,4.93
2018-05-03T18:24:42.378Z,5.17
2018-05-03T18:27:09.875Z,6.10
2018-05-03T18:29:38.158Z,5.00
2018-05-03T18:32:05.664Z,4.73
2018-05-03T18:34:33.162Z,4.37
2018-05-03T18:37:00.727Z,5.47
2018-05-03T18:39:28.291Z,5.07
2018-05-03T18:41:55.778Z,4.93
2018-05-03T18:44:23.330Z,9.00
2018-05-03T18:46:51.578Z,4.83
2018-05-03T18:49:19.183Z,5.53
2018-05-03T18:51:46.638Z,5.47
2018-05-03T18:54:14.139Z,4.13
2018-05-03T18:56:41.675Z,3.83
2018-05-03T18:59:09.242Z,6.73
2018-05-03T19:01:36.731Z,8.13
2018-05-03T19:04:04.223Z,9.43
2018-05-03T19:06:32.530Z,9.93
2018-05-03T19:09:00.035Z,12.33
2018-05-03T19:11:27.530Z,11.90
2018-05-03T19:13:55.831Z,10.77
2018-05-03T19:16:23.326Z,9.93
2018-05-03T19:18:50.826Z,12.63
2018-05-03T19:21:18.395Z,9.17
2018-05-03T19:23:45.904Z,8.13
2018-05-03T19:26:13.380Z,6.80
2018-05-03T19:28:40.928Z,4.50
2018-05-03T19:31:08.407Z,5.43
2018-05-03T19:33:35.893Z,8.83
2018-05-03T19:36:03.458Z,5.00
2018-05-03T19:38:30.955Z,5.93
2018-05-03T19:40:58.482Z,6.50
2018-05-03T19:43:26.093Z,5.07
2018-05-03T19:45:53.559Z,5.17
2018-05-03T19:48:21.046Z,2.90
2018-05-03T19:50:48.622Z,8.50
2018-05-03T19:53:16.103Z,3.83
2018-05-03T19:55:43.596Z,6.37
2018-05-03T19:58:11.132Z,6.53
2018-05-03T20:00:40.754Z,6.07
2018-05-03T20:03:08.259Z,6.63
2018-05-03T20:05:35.771Z,4.07
2018-05-03T20:08:03.274Z,2.67
2018-05-03T20:10:30.754Z,4.87
2018-05-03T20:12:58.323Z,4.70
2018-05-03T20:15:25.817Z,4.33
2018-05-03T20:17:53.312Z,3.90
2018-05-03T20:20:20.847Z,3.47
2018-05-03T20:22:48.326Z,6.30
2018-05-03T20:25:15.805Z,4.77
2018-05-03T20:27:43.349Z,2.93
2018-05-03T20:30:10.845Z,4.50
2018-05-03T20:32:38.351Z,4.70
2018-05-03T20:35:05.998Z,4.67
2018-05-03T20:37:33.483Z,5.57
2018-05-03T20:40:00.970Z,5.07
2018-05-03T20:42:29.259Z,3.80
2018-05-03T20:44:56.759Z,2.80
2018-05-03T20:47:24.256Z,3.83
2018-05-03T20:49:52.555Z,5.93
2018-05-03T20:52:20.035Z,3.10
2018-05-03T20:54:47.518Z,3.97
2018-05-03T20:57:15.067Z,2.80
2018-05-03T20:59:42.554Z,4.63
2018-05-03T21:02:10.039Z,4.33
2018-05-03T21:04:37.572Z,4.63
2018-05-03T21:07:05.120Z,4.37
2018-05-03T21:09:32.614Z,5.53
2018-05-03T21:12:00.919Z,5.27
2018-05-03T21:14:28.426Z,6.07
2018-05-03T21:16:55.920Z,4.00
2018-05-03T21:19:24.231Z,5.20
2018-05-03T21:21:51.732Z,8.03
2018-05-03T21:24:19.218Z,5.33
2018-05-03T21:26:47.499Z,3.10
2018-05-03T21:29:15.822Z,4.47
2018-05-03T21:31:43.303Z,4.87
2018-05-03T21:34:10.867Z,5.73
2018-05-03T21:36:38.346Z,6.03
2018-05-03T21:39:06.605Z,4.50
2018-05-03T21:41:34.136Z,6.97
2018-05-03T21:44:01.627Z,4.47
2018-05-03T21:46:29.119Z,2.63
2018-05-03T21:48:57.399Z,9.60
2018-05-03T21:51:24.895Z,7.23
2018-05-03T21:53:52.385Z,4.83
2018-05-03T21:56:19.919Z,6.13
2018-05-03T21:58:47.405Z,4.77
2018-05-03T22:01:14.894Z,6.43
2018-05-03T22:03:43.218Z,5.77
2018-05-03T22:06:10.708Z,5.50
2018-05-03T22:08:38.189Z,9.00
2018-05-03T22:11:06.496Z,8.73
2018-05-03T22:13:33.987Z,9.80
2018-05-03T22:16:01.483Z,7.30
2018-05-03T22:18:29.023Z,7.43
2018-05-03T22:20:56.507Z,6.97
2018-05-03T22:23:25.785Z,12.00
2018-05-03T22:25:53.409Z,7.43
2018-05-03T22:28:21.618Z,9.73
2018-05-03T22:30:49.093Z,7.90
2018-05-03T22:33:16.630Z,8.77
2018-05-03T22:35:44.115Z,7.17
2018-05-03T22:38:11.614Z,9.30
2018-05-03T22:40:39.142Z,6.27
2018-05-03T22:43:06.634Z,7.30
2018-05-03T22:45:34.122Z,5.10
2018-05-03T22:48:01.642Z,9.20
2018-05-03T22:50:29.124Z,7.07
2018-05-03T22:52:56.613Z,5.70
2018-05-03T22:55:24.180Z,5.30
2018-05-03T22:57:51.667Z,6.40
2018-05-03T23:00:19.212Z,6.90
2018-05-03T23:02:46.698Z,5.60
2018-05-03T23:05:14.202Z,7.17
2018-05-03T23:07:41.739Z,8.63
2018-05-03T23:10:09.230Z,3.87
2018-05-03T23:12:36.732Z,7.20
2018-05-03T23:15:04.289Z,5.40
2018-05-03T23:17:32.551Z,5.53
2018-05-03T23:20:00.052Z,7.37
2018-05-03T23:22:27.607Z,6.00
2018-05-03T23:24:55.107Z,5.10
2018-05-03T23:27:22.691Z,6.03
2018-05-03T23:29:50.245Z,7.07
2018-05-03T23:32:18.923Z,6.83
2018-05-03T23:34:46.823Z,6.27
2018-05-03T23:37:14.971Z,5.13
2018-05-03T23:39:44.166Z,6.07
2018-05-03T23:44:46.964Z,8.27
2018-05-03T23:47:15.905Z,4.27
2018-05-03T23:49:44.585Z,3.97
2018-05-03T23:52:12.907Z,9.07
2018-05-03T23:54:41.552Z,4.80
2018-05-03T23:57:09.562Z,5.17
2018-05-03T23:59:37.439Z,5.47
